Time;durP1;ratioP1;P1;durP2;ratioP2;P2;SDS_P1;SDS_P2;PMS_P1;PMS_P2;Temp;Humidity;BMP_temperature;BMP_pressure;BME280_temperature;BME280_humidity;BME280_pressure;Samples;Min_cycle;Max_cycle;Signal;HPM_P1;HPM_P2
2022/10/22 00:01:11;;;;;;;11.55;7.25;;;13.00;99.90;;;;;;5091209;28;20040;-82
2022/10/22 00:03:37;;;;;;;11.00;6.10;;;12.90;99.90;;;;;;5091352;28;20044;-81
2022/10/22 00:06:03;;;;;;;16.65;6.97;;;12.90;99.90;;;;;;5074482;28;20048;-83
2022/10/22 00:08:29;;;;;;;15.23;6.85;;;12.80;99.90;;;;;;5090885;28;20520;-82
2022/10/22 00:10:55;;;;;;;15.60;6.50;;;13.30;99.90;;;;;;5090215;28;20192;-82
2022/10/22 00:13:20;;;;;;;9.95;6.30;;;12.80;99.90;;;;;;5092207;28;20153;-81
2022/10/22 00:15:46;;;;;;;13.23;6.20;;;13.10;99.90;;;;;;5090934;28;20039;-81
2022/10/22 00:18:12;;;;;;;13.43;6.40;;;12.80;99.90;;;;;;5107077;28;20482;-81
2022/10/22 00:20:37;;;;;;;13.07;7.10;;;12.80;99.90;;;;;;5111516;28;20043;-80
2022/10/22 00:23:03;;;;;;;13.30;7.38;;;12.90;99.90;;;;;;5111055;28;20059;-80
2022/10/22 00:25:29;;;;;;;14.05;7.03;;;12.70;99.90;;;;;;5103278;28;20086;-81
2022/10/22 00:27:55;;;;;;;15.85;7.03;;;13.10;99.90;;;;;;5110977;28;20039;-81
2022/10/22 00:30:21;;;;;;;9.23;6.03;;;12.70;99.90;;;;;;5092479;28;20523;-81
2022/10/22 00:32:46;;;;;;;14.68;7.03;;;12.70;99.90;;;;;;5090868;28;20047;-81
2022/10/22 00:35:12;;;;;;;11.23;6.45;;;12.70;99.90;;;;;;5092037;28;20112;-81
2022/10/22 00:37:37;;;;;;;14.35;5.93;;;12.60;99.90;;;;;;5090381;28;20036;-81
2022/10/22 00:40:04;;;;;;;16.27;7.10;;;12.60;99.90;;;;;;5090495;28;20486;-81
2022/10/22 00:42:30;;;;;;;12.10;6.85;;;12.60;99.90;;;;;;5091954;28;20044;-82
2022/10/22 00:44:58;;;;;;;8.30;6.15;;;12.60;99.90;;;;;;5089258;28;20620;-81
2022/10/22 00:47:27;;;;;;;12.82;6.95;;;12.60;99.90;;;;;;5090460;28;20051;-81
2022/10/22 00:49:54;;;;;;;11.82;6.82;;;12.60;99.90;;;;;;5090576;28;20047;-82
2022/10/22 00:52:21;;;;;;;11.63;6.75;;;12.60;99.90;;;;;;5091726;28;20036;-81
2022/10/22 00:54:47;;;;;;;13.02;6.90;;;12.50;99.90;;;;;;5094990;28;20520;-81
2022/10/22 00:57:15;;;;;;;16.63;7.82;;;12.70;99.90;;;;;;5110604;28;20549;-81
2022/10/22 00:59:41;;;;;;;11.25;6.75;;;12.50;99.90;;;;;;5110921;28;20082;-80
2022/10/22 01:02:07;;;;;;;14.55;6.88;;;12.60;99.90;;;;;;5110680;28;20154;-81
2022/10/22 01:04:32;;;;;;;14.70;6.93;;;12.50;99.90;;;;;;5092928;28;20558;-81
2022/10/22 01:06:58;;;;;;;12.73;7.55;;;12.50;99.90;;;;;;5088768;28;20044;-80
2022/10/22 01:09:31;;;;;;;10.70;6.65;;;12.40;99.90;;;;;;5088790;28;20051;-80
2022/10/22 01:12:06;;;;;;;10.13;6.60;;;12.50;99.90;;;;;;5089898;28;20040;-82
2022/10/22 01:14:37;;;;;;;15.85;6.95;;;12.40;99.90;;;;;;5091558;28;20043;-81
2022/10/22 01:17:29;;;;;;;12.45;7.03;;;12.40;99.90;;;;;;5090568;28;20586;-81
2022/10/22 01:20:10;;;;;;;12.85;6.45;;;12.40;99.90;;;;;;5090713;28;20460;-84
2022/10/22 01:22:44;;;;;;;12.05;6.18;;;12.40;99.90;;;;;;5090252;28;20048;-81
2022/10/22 01:25:49;;;;;;;11.43;6.28;;;12.40;99.90;;;;;;5098912;28;20059;-82
2022/10/22 01:28:48;;;;;;;11.15;6.63;;;12.40;99.90;;;;;;5100924;28;20083;-81
2022/10/22 01:31:15;;;;;;;11.55;7.10;;;12.30;99.90;;;;;;5110415;28;20124;-81
2022/10/22 01:33:43;;;;;;;13.75;6.88;;;12.70;99.90;;;;;;5110332;28;20036;-80
2022/10/22 01:36:11;;;;;;;11.98;6.95;;;12.40;99.90;;;;;;5098846;28;20048;-81
2022/10/22 01:38:37;;;;;;;13.60;6.97;;;12.30;99.90;;;;;;5110415;28;20159;-80
2022/10/22 01:41:03;;;;;;;12.20;6.63;;;12.30;99.90;;;;;;5110060;28;20039;-80
2022/10/22 01:43:29;;;;;;;12.60;6.78;;;12.30;99.90;;;;;;5109827;28;20474;-80
2022/10/22 01:46:01;;;;;;;15.50;6.80;;;12.70;99.90;;;;;;5108369;28;20046;-83
2022/10/22 01:48:34;;;;;;;12.45;6.50;;;12.40;99.90;;;;;;5108287;28;20058;-81
2022/10/22 01:51:05;;;;;;;9.80;6.13;;;12.40;99.90;;;;;;5113448;28;20401;-83
2022/10/22 01:53:52;;;;;;;12.77;6.68;;;12.40;99.90;;;;;;5113769;28;20501;-81
2022/10/22 01:56:26;;;;;;;11.13;6.18;;;12.40;99.90;;;;;;5108965;28;20557;-81
2022/10/22 01:59:23;;;;;;;11.00;6.38;;;12.40;99.90;;;;;;5093226;28;20134;-81
2022/10/22 02:01:55;;;;;;;11.90;6.63;;;12.30;99.90;;;;;;5113250;28;20500;-81
2022/10/22 02:04:28;;;;;;;8.65;6.35;;;12.30;99.90;;;;;;5114534;28;20047;-81
2022/10/22 02:06:58;;;;;;;11.38;7.03;;;12.40;99.90;;;;;;5109044;28;20047;-81
2022/10/22 02:09:26;;;;;;;10.35;6.65;;;12.40;99.90;;;;;;5111840;28;20060;-80
2022/10/22 02:11:52;;;;;;;10.85;7.35;;;12.50;99.90;;;;;;5114147;28;20035;-82
2022/10/22 02:14:19;;;;;;;12.85;7.03;;;12.30;99.90;;;;;;5111884;28;20056;-80
2022/10/22 02:16:47;;;;;;;19.25;7.30;;;12.30;99.90;;;;;;5113998;28;20052;-80
2022/10/22 02:19:25;;;;;;;12.15;7.43;;;12.30;99.90;;;;;;5095136;28;20086;-81
2022/10/22 02:21:51;;;;;;;13.38;7.63;;;12.30;99.90;;;;;;5092566;28;20040;-81
2022/10/22 02:24:18;;;;;;;10.18;7.18;;;12.30;99.90;;;;;;5110482;28;20490;-83
2022/10/22 02:27:19;;;;;;;12.35;7.57;;;12.70;99.90;;;;;;5129767;27;20074;-84
2022/10/22 02:29:48;;;;;;;12.35;7.30;;;12.30;99.90;;;;;;5112533;27;20063;-81
2022/10/22 02:32:18;;;;;;;14.85;7.78;;;12.60;99.90;;;;;;5118802;27;20113;-79
2022/10/22 02:34:46;;;;;;;14.70;7.57;;;12.30;99.90;;;;;;5093055;28;20475;-81
2022/10/22 02:37:12;;;;;;;11.57;6.57;;;12.40;99.90;;;;;;5128993;27;20062;-82
2022/10/22 02:39:38;;;;;;;15.55;7.22;;;12.50;99.90;;;;;;5110475;27;20040;-80
2022/10/22 02:42:04;;;;;;;13.57;6.70;;;12.80;99.90;;;;;;5092964;28;20048;-79
2022/10/22 02:44:30;;;;;;;12.68;7.28;;;12.40;99.90;;;;;;5110999;27;20424;-81
2022/10/22 02:46:56;;;;;;;14.55;7.55;;;12.40;99.90;;;;;;5128374;27;20045;-81
2022/10/22 02:49:22;;;;;;;14.15;7.60;;;12.40;99.90;;;;;;5113569;27;20055;-81
2022/10/22 02:51:48;;;;;;;15.43;7.32;;;12.40;99.90;;;;;;5093123;28;20419;-85
2022/10/22 02:54:13;;;;;;;15.07;7.78;;;12.50;99.90;;;;;;5092870;28;20040;-81
2022/10/22 02:56:39;;;;;;;12.25;7.75;;;12.40;99.90;;;;;;5092768;28;20051;-81
2022/10/22 02:59:04;;;;;;;13.95;7.60;;;12.50;99.90;;;;;;5092591;28;20047;-81
2022/10/22 03:01:30;;;;;;;14.75;7.10;;;12.40;99.90;;;;;;5099697;28;20047;-83
2022/10/22 03:03:56;;;;;;;11.48;7.43;;;12.50;99.90;;;;;;5112612;28;20047;-81
2022/10/22 03:06:21;;;;;;;13.57;7.70;;;12.80;99.90;;;;;;5113156;28;20406;-81
2022/10/22 03:08:47;;;;;;;15.75;7.07;;;12.50;99.90;;;;;;5112836;28;20116;-80
2022/10/22 03:11:12;;;;;;;15.63;7.47;;;12.50;99.90;;;;;;5104733;28;20036;-86
2022/10/22 03:13:38;;;;;;;16.70;7.88;;;12.90;99.90;;;;;;5090928;28;20066;-82
2022/10/22 03:16:04;;;;;;;11.68;7.45;;;12.50;99.90;;;;;;5120980;27;20423;-81
2022/10/22 03:18:29;;;;;;;19.38;8.27;;;12.50;99.90;;;;;;5111095;27;20057;-81
2022/10/22 03:21:09;;;;;;;23.75;7.70;;;12.50;99.90;;;;;;5109218;27;20135;-83
2022/10/22 03:23:37;;;;;;;14.30;7.57;;;12.40;99.90;;;;;;5092346;28;20036;-83
2022/10/22 03:26:04;;;;;;;14.77;8.00;;;12.50;99.90;;;;;;5092192;28;20051;-82
2022/10/22 03:28:29;;;;;;;14.20;7.38;;;12.40;99.90;;;;;;5096039;28;20059;-81
2022/10/22 03:30:55;;;;;;;13.35;7.40;;;12.40;99.90;;;;;;5110938;28;20058;-82
2022/10/22 03:33:21;;;;;;;19.42;7.82;;;12.40;99.90;;;;;;5112200;28;20043;-80
2022/10/22 03:35:47;;;;;;;14.60;7.75;;;12.50;99.90;;;;;;5112217;28;20062;-82
2022/10/22 03:38:13;;;;;;;11.00;7.00;;;12.40;99.90;;;;;;5112163;28;20055;-81
2022/10/22 03:40:41;;;;;;;15.00;8.52;;;12.30;99.90;;;;;;5093430;28;20097;-82
2022/10/22 03:43:07;;;;;;;19.65;8.70;;;12.30;99.90;;;;;;5090475;28;20048;-82
2022/10/22 03:45:33;;;;;;;14.90;8.20;;;12.30;99.90;;;;;;5104854;28;20055;-81
2022/10/22 03:47:58;;;;;;;14.68;7.47;;;12.30;99.90;;;;;;5111898;28;20039;-83
2022/10/22 03:50:24;;;;;;;18.25;7.95;;;12.40;99.90;;;;;;5102145;28;20394;-80
2022/10/22 03:52:49;;;;;;;13.15;7.68;;;12.30;99.90;;;;;;5106103;28;20047;-81
2022/10/22 03:55:15;;;;;;;19.65;8.05;;;12.30;99.90;;;;;;5112170;28;20044;-81
2022/10/22 03:57:41;;;;;;;13.75;7.45;;;12.20;99.90;;;;;;5111748;28;20039;-81
2022/10/22 04:00:07;;;;;;;14.50;8.18;;;12.20;99.90;;;;;;5109829;28;20139;-81
2022/10/22 04:02:33;;;;;;;17.17;7.50;;;12.20;99.90;;;;;;5089998;28;20143;-81
2022/10/22 04:04:59;;;;;;;17.38;7.22;;;12.20;99.90;;;;;;5102271;28;20468;-81
2022/10/22 04:07:24;;;;;;;14.02;7.22;;;12.20;99.90;;;;;;5111679;27;20031;-82
2022/10/22 04:09:50;;;;;;;13.27;8.02;;;12.20;99.90;;;;;;5131145;27;20409;-86
2022/10/22 04:12:16;;;;;;;15.43;8.35;;;12.10;99.90;;;;;;5114742;27;20097;-83
2022/10/22 04:14:41;;;;;;;12.98;8.20;;;12.30;99.90;;;;;;5111133;28;20051;-83
2022/10/22 04:17:07;;;;;;;19.38;7.95;;;12.40;99.90;;;;;;5110438;28;20052;-81
2022/10/22 04:19:33;;;;;;;15.95;8.10;;;12.30;99.90;;;;;;5109209;28;20047;-82
2022/10/22 04:21:59;;;;;;;14.73;7.95;;;12.10;99.90;;;;;;5104523;28;20154;-81
2022/10/22 04:24:25;;;;;;;16.13;8.10;;;12.20;99.90;;;;;;5089505;28;20044;-83
2022/10/22 04:26:53;;;;;;;13.82;7.90;;;12.10;99.90;;;;;;5090777;28;20119;-81
2022/10/22 04:29:19;;;;;;;12.65;7.35;;;12.10;99.90;;;;;;5073240;28;20072;-83
2022/10/22 04:31:44;;;;;;;16.48;8.35;;;12.40;99.90;;;;;;5090630;28;20091;-80
2022/10/22 04:34:10;;;;;;;20.50;9.45;;;12.10;99.90;;;;;;5109442;28;20063;-82
2022/10/22 04:36:36;;;;;;;20.77;8.80;;;12.40;99.90;;;;;;5111596;28;20529;-80
2022/10/22 04:39:03;;;;;;;13.75;7.85;;;12.10;99.90;;;;;;5109080;28;20050;-85
2022/10/22 04:41:33;;;;;;;17.25;8.35;;;12.10;99.90;;;;;;5110591;28;20083;-81
2022/10/22 04:43:59;;;;;;;13.50;8.43;;;12.10;99.90;;;;;;5111197;28;20040;-84
2022/10/22 04:46:26;;;;;;;22.83;8.98;;;12.40;99.90;;;;;;5110836;27;20044;-83
2022/10/22 04:48:52;;;;;;;18.67;8.73;;;12.10;99.90;;;;;;5110864;28;20044;-81
2022/10/22 04:51:20;;;;;;;15.52;8.60;;;12.10;99.90;;;;;;5108293;28;20055;-81
2022/10/22 04:53:46;;;;;;;19.02;8.38;;;12.10;99.90;;;;;;5110988;28;20058;-83
2022/10/22 04:56:20;;;;;;;21.10;9.40;;;12.10;99.90;;;;;;5110615;28;20040;-81
2022/10/22 04:58:50;;;;;;;20.63;8.70;;;12.10;99.90;;;;;;5110735;28;20517;-84
2022/10/22 05:01:22;;;;;;;16.05;8.55;;;12.10;99.90;;;;;;5106062;28;20135;-81
2022/10/22 05:03:49;;;;;;;19.27;8.98;;;12.10;99.90;;;;;;5110554;28;20489;-81
2022/10/22 05:06:14;;;;;;;15.60;8.27;;;12.10;99.90;;;;;;5110507;28;20052;-83
2022/10/22 05:08:42;;;;;;;16.27;8.75;;;12.10;99.90;;;;;;5110222;28;20055;-82
2022/10/22 05:11:28;;;;;;;18.58;8.60;;;12.40;99.90;;;;;;5107376;28;20035;-80
2022/10/22 05:13:56;;;;;;;19.27;9.23;;;12.10;99.90;;;;;;5088799;28;20055;-82
2022/10/22 05:16:22;;;;;;;15.68;8.27;;;12.10;99.90;;;;;;5109958;28;20043;-84
2022/10/22 05:18:48;;;;;;;19.60;8.55;;;12.10;99.90;;;;;;5092074;28;20053;-81
2022/10/22 05:21:16;;;;;;;18.42;8.55;;;12.40;99.90;;;;;;5110228;28;20049;-81
2022/10/22 05:23:43;;;;;;;17.77;8.77;;;12.10;99.90;;;;;;5090036;28;20051;-81
2022/10/22 05:26:10;;;;;;;15.57;9.02;;;12.00;99.90;;;;;;5089894;28;20044;-82
2022/10/22 05:28:37;;;;;;;15.68;9.15;;;12.00;99.90;;;;;;5087885;28;20064;-81
2022/10/22 05:31:04;;;;;;;20.95;9.27;;;12.00;99.90;;;;;;5105405;28;20131;-81
2022/10/22 05:33:31;;;;;;;16.08;9.77;;;12.10;99.90;;;;;;5101065;28;20052;-81
2022/10/22 05:35:57;;;;;;;18.88;8.88;;;12.10;99.90;;;;;;5110453;28;20054;-81
2022/10/22 05:38:23;;;;;;;12.88;8.50;;;12.10;99.90;;;;;;5109627;28;20103;-83
2022/10/22 05:41:06;;;;;;;15.23;9.13;;;12.20;99.90;;;;;;5108927;28;20059;-81
2022/10/22 05:43:32;;;;;;;25.33;8.93;;;12.10;99.90;;;;;;5103261;28;20044;-81
2022/10/22 05:46:13;;;;;;;20.58;9.88;;;12.10;99.90;;;;;;5106257;28;20120;-81
2022/10/22 05:48:39;;;;;;;14.90;8.77;;;12.10;99.90;;;;;;5109891;28;20553;-81
2022/10/22 05:51:07;;;;;;;15.82;8.90;;;12.10;99.90;;;;;;5110347;28;20043;-81
2022/10/22 05:53:35;;;;;;;15.65;8.75;;;12.20;99.90;;;;;;5107553;28;20044;-80
2022/10/22 05:56:02;;;;;;;16.13;8.73;;;12.10;99.90;;;;;;5089695;28;20111;-81
2022/10/22 05:58:28;;;;;;;17.83;9.52;;;12.40;99.90;;;;;;5089664;28;20518;-84
2022/10/22 06:00:54;;;;;;;14.98;8.98;;;12.10;99.90;;;;;;5089892;28;20044;-81
2022/10/22 06:03:19;;;;;;;13.57;8.55;;;12.10;99.90;;;;;;5088462;28;20515;-83
2022/10/22 06:05:45;;;;;;;17.88;9.25;;;12.10;99.90;;;;;;5089163;28;20048;-81
2022/10/22 06:08:13;;;;;;;20.88;9.55;;;12.10;99.90;;;;;;5095191;28;20035;-81
2022/10/22 06:10:41;;;;;;;21.55;9.63;;;12.10;99.90;;;;;;5109708;28;20090;-82
2022/10/22 06:13:07;;;;;;;19.42;8.90;;;12.30;99.90;;;;;;5092393;28;20052;-85
2022/10/22 06:15:33;;;;;;;17.58;8.93;;;12.60;99.90;;;;;;5102350;28;20103;-82
2022/10/22 06:17:59;;;;;;;18.38;8.55;;;12.10;99.90;;;;;;5109994;28;20040;-83
2022/10/22 06:20:25;;;;;;;15.93;9.32;;;12.10;99.90;;;;;;5109870;28;20047;-82
2022/10/22 06:22:50;;;;;;;15.35;8.90;;;12.10;99.90;;;;;;5081745;28;20052;-81
2022/10/22 06:25:16;;;;;;;14.35;8.98;;;12.10;99.90;;;;;;5089136;28;20052;-83
2022/10/22 06:27:42;;;;;;;18.83;8.85;;;12.10;99.90;;;;;;5088081;28;20177;-84
2022/10/22 06:30:08;;;;;;;20.25;9.43;;;12.10;99.90;;;;;;5094119;28;20054;-82
2022/10/22 06:32:33;;;;;;;18.08;9.20;;;12.10;99.90;;;;;;5106647;28;20058;-82
2022/10/22 06:34:59;;;;;;;15.88;8.93;;;12.50;99.90;;;;;;5089315;28;20052;-85
2022/10/22 06:37:25;;;;;;;15.85;8.95;;;12.50;99.90;;;;;;5093057;28;20043;-82
2022/10/22 06:39:50;;;;;;;17.30;8.80;;;12.10;99.90;;;;;;5113227;28;20047;-82
2022/10/22 06:42:16;;;;;;;15.48;8.77;;;12.20;99.90;;;;;;5129056;27;20104;-82
2022/10/22 06:44:41;;;;;;;14.80;8.70;;;12.20;99.90;;;;;;5092959;28;20040;-82
2022/10/22 06:47:07;;;;;;;18.13;9.40;;;12.20;99.90;;;;;;5113580;28;20032;-83
2022/10/22 06:49:33;;;;;;;17.58;9.35;;;12.30;99.90;;;;;;5111967;28;20048;-84
2022/10/22 06:51:58;;;;;;;19.00;9.35;;;12.20;99.90;;;;;;5113284;28;20081;-82
2022/10/22 06:54:24;;;;;;;21.83;7.95;;;12.70;99.90;;;;;;5105100;28;20555;-83
2022/10/22 06:56:49;;;;;;;20.55;8.02;;;12.30;99.90;;;;;;5091295;28;20372;-82
2022/10/22 06:59:15;;;;;;;19.08;8.98;;;12.40;99.90;;;;;;5098716;28;20036;-82
2022/10/22 07:01:41;;;;;;;14.93;7.97;;;12.40;99.90;;;;;;5094277;28;20051;-83
2022/10/22 07:04:07;;;;;;;17.92;7.72;;;12.40;99.90;;;;;;5092930;28;20056;-81
2022/10/22 07:06:33;;;;;;;22.77;8.25;;;12.50;99.90;;;;;;5093656;28;20044;-85
2022/10/22 07:08:59;;;;;;;15.82;7.95;;;12.50;99.90;;;;;;5092598;28;20130;-83
2022/10/22 07:11:29;;;;;;;13.57;7.03;;;13.10;99.90;;;;;;5091043;28;20519;-84
2022/10/22 07:13:57;;;;;;;20.95;7.65;;;12.70;99.90;;;;;;5074081;28;20040;-83
2022/10/22 07:16:23;;;;;;;17.75;7.30;;;12.80;99.90;;;;;;5092002;28;20394;-87
2022/10/22 07:18:49;;;;;;;17.27;7.50;;;12.80;99.90;;;;;;5073997;28;20097;-81
2022/10/22 07:21:17;;;;;;;13.48;7.50;;;12.90;99.90;;;;;;5092328;28;20432;-81
2022/10/22 07:23:43;;;;;;;21.15;7.97;;;12.70;99.90;;;;;;5093150;28;20048;-82
2022/10/22 07:26:11;;;;;;;17.42;7.55;;;12.80;99.90;;;;;;5092128;28;20076;-83
2022/10/22 07:28:38;;;;;;;11.77;7.07;;;12.80;99.90;;;;;;5091482;28;20101;-84
2022/10/22 07:31:06;;;;;;;19.55;7.35;;;12.90;99.90;;;;;;5092017;28;20059;-82
2022/10/22 07:33:32;;;;;;;17.15;7.18;;;12.90;99.90;;;;;;5091814;28;20706;-82
2022/10/22 07:35:58;;;;;;;16.52;7.38;;;12.90;99.90;;;;;;5092047;28;20051;-81
2022/10/22 07:38:24;;;;;;;18.05;7.45;;;13.50;99.90;;;;;;5092088;28;20043;-84
2022/10/22 07:40:53;;;;;;;21.85;7.15;;;13.00;99.90;;;;;;5090397;28;20118;-82
2022/10/22 07:43:19;;;;;;;18.88;6.95;;;13.00;99.90;;;;;;5090481;28;20071;-82
2022/10/22 07:45:45;;;;;;;14.73;7.13;;;13.10;99.90;;;;;;5090158;28;20048;-82
2022/10/22 07:48:12;;;;;;;17.27;7.00;;;13.30;99.90;;;;;;5091825;28;20496;-86
2022/10/22 07:50:38;;;;;;;16.00;7.03;;;13.10;99.90;;;;;;5103212;28;20500;-79
2022/10/22 07:53:04;;;;;;;14.73;6.43;;;13.30;99.90;;;;;;5113960;27;20040;-82
2022/10/22 07:55:30;;;;;;;16.98;8.27;;;13.20;99.90;;;;;;5080634;28;20082;-80
2022/10/22 07:57:55;;;;;;;13.40;6.53;;;13.20;99.90;;;;;;5073226;28;20047;-84
2022/10/22 08:00:21;;;;;;;16.83;6.95;;;13.60;99.90;;;;;;5073505;28;20441;-83
2022/10/22 08:02:47;;;;;;;17.27;6.22;;;13.30;99.90;;;;;;5091333;28;20118;-81
2022/10/22 08:05:12;;;;;;;13.23;6.40;;;13.50;99.90;;;;;;5104378;28;20048;-81
2022/10/22 08:07:39;;;;;;;14.88;6.75;;;13.30;99.90;;;;;;5111585;28;20397;-81
2022/10/22 08:10:05;;;;;;;16.67;6.32;;;13.50;99.90;;;;;;5111665;28;20112;-81
2022/10/22 08:12:31;;;;;;;14.13;5.80;;;13.30;99.90;;;;;;5110603;27;20047;-81
2022/10/22 08:14:56;;;;;;;15.80;6.65;;;13.40;99.90;;;;;;5111215;28;20039;-81
2022/10/22 08:17:22;;;;;;;18.90;6.47;;;13.80;99.90;;;;;;5092857;28;20063;-80
2022/10/22 08:19:48;;;;;;;14.68;6.97;;;13.50;99.90;;;;;;5091262;28;20093;-81
2022/10/22 08:22:13;;;;;;;17.55;6.10;;;13.70;99.90;;;;;;5091125;28;20051;-80
2022/10/22 08:24:40;;;;;;;14.52;6.00;;;13.60;99.90;;;;;;5091107;28;20051;-83
2022/10/22 08:27:05;;;;;;;19.13;7.30;;;13.80;99.90;;;;;;5091890;28;20160;-81
2022/10/22 08:29:31;;;;;;;19.60;5.50;;;13.80;99.90;;;;;;5090052;28;20055;-80
2022/10/22 08:31:56;;;;;;;16.13;5.90;;;14.30;99.90;;;;;;5091208;28;20044;-83
2022/10/22 08:34:22;;;;;;;17.98;5.55;;;14.10;99.90;;;;;;5104574;28;20116;-79
2022/10/22 08:36:48;;;;;;;14.65;5.75;;;14.50;99.90;;;;;;5111437;28;20079;-82
2022/10/22 08:39:13;;;;;;;20.05;5.50;;;14.30;99.90;;;;;;5127691;27;20183;-82
2022/10/22 08:41:48;;;;;;;12.82;4.93;;;14.50;99.90;;;;;;5110935;28;20477;-83
2022/10/22 08:44:30;;;;;;;12.65;5.28;;;14.60;99.90;;;;;;5120286;27;20622;-82
2022/10/22 08:47:15;;;;;;;16.60;4.35;;;14.70;99.90;;;;;;5101094;28;20051;-80
2022/10/22 08:49:43;;;;;;;15.32;5.70;;;14.80;99.90;;;;;;5110329;28;20521;-80
2022/10/22 08:52:15;;;;;;;12.75;4.18;;;15.00;99.90;;;;;;5111146;28;20043;-84
2022/10/22 08:54:58;;;;;;;12.90;4.20;;;15.00;99.90;;;;;;5087308;28;20040;-85
2022/10/22 08:57:49;;;;;;;16.63;4.63;;;15.50;99.90;;;;;;5089542;28;20089;-82
2022/10/22 09:00:19;;;;;;;17.40;4.30;;;15.30;99.90;;;;;;5072353;28;20490;-80
2022/10/22 09:03:11;;;;;;;15.93;4.07;;;15.40;99.90;;;;;;5088646;28;20476;-80
2022/10/22 09:06:13;;;;;;;15.68;5.10;;;15.40;99.90;;;;;;5091520;28;20048;-78
2022/10/22 09:08:40;;;;;;;14.90;3.83;;;15.60;99.90;;;;;;5090191;28;20173;-81
2022/10/22 09:11:21;;;;;;;16.08;4.65;;;15.60;99.90;;;;;;5090465;28;20043;-78
2022/10/22 09:13:48;;;;;;;14.90;4.40;;;15.80;99.90;;;;;;5090439;28;20395;-78
2022/10/22 09:16:17;;;;;;;14.95;3.90;;;15.80;99.90;;;;;;5091225;28;20044;-78
2022/10/22 09:18:59;;;;;;;13.10;4.15;;;15.80;99.90;;;;;;5089030;28;20071;-78
2022/10/22 09:21:53;;;;;;;16.85;4.75;;;15.90;99.90;;;;;;5090354;28;20051;-77
2022/10/22 09:24:37;;;;;;;14.47;4.23;;;15.90;99.90;;;;;;5090067;28;20130;-79
2022/10/22 09:27:16;;;;;;;13.60;4.03;;;16.00;99.90;;;;;;5091236;28;20330;-79
2022/10/22 09:29:43;;;;;;;16.98;4.28;;;16.00;99.90;;;;;;5108606;28;20122;-77
2022/10/22 09:32:09;;;;;;;19.33;3.90;;;16.00;99.90;;;;;;5110134;28;20082;-81
2022/10/22 09:34:35;;;;;;;17.13;4.00;;;15.90;99.90;;;;;;5110127;28;20454;-77
2022/10/22 09:37:04;;;;;;;13.48;4.05;;;16.10;99.90;;;;;;5107957;28;20074;-82
2022/10/22 09:39:43;;;;;;;12.00;4.25;;;16.00;99.90;;;;;;5090134;28;20044;-81
2022/10/22 09:42:13;;;;;;;16.80;3.92;;;15.80;99.90;;;;;;5090469;28;20051;-77
2022/10/22 09:44:39;;;;;;;10.57;3.92;;;15.90;99.90;;;;;;5090924;28;20098;-81
2022/10/22 09:47:43;;;;;;;14.10;4.13;;;15.90;99.90;;;;;;5089901;28;20040;-80
2022/10/22 09:50:21;;;;;;;12.45;4.10;;;15.90;99.90;;;;;;5089190;28;20060;-77
2022/10/22 09:53:03;;;;;;;13.30;4.40;;;15.90;99.90;;;;;;5089896;28;20071;-79
2022/10/22 09:55:29;;;;;;;23.38;4.32;;;15.90;99.90;;;;;;5090958;28;20040;-80
2022/10/22 09:57:57;;;;;;;16.25;4.55;;;15.90;99.90;;;;;;5089997;28;20097;-79
2022/10/22 10:00:25;;;;;;;10.98;4.00;;;16.10;99.90;;;;;;5090173;28;20036;-79
2022/10/22 10:02:58;;;;;;;17.08;4.70;;;15.90;99.90;;;;;;5089865;28;20131;-77
2022/10/22 10:05:36;;;;;;;16.75;4.40;;;15.90;99.90;;;;;;5090474;28;20050;-81
2022/10/22 10:08:12;;;;;;;15.60;4.93;;;15.90;99.90;;;;;;5089804;28;20044;-83
2022/10/22 10:10:49;;;;;;;16.17;4.72;;;15.80;99.90;;;;;;5090383;28;20052;-77
2022/10/22 10:13:33;;;;;;;16.27;4.82;;;15.70;99.90;;;;;;5095005;28;20036;-79
2022/10/22 10:16:12;;;;;;;10.38;4.65;;;15.80;99.90;;;;;;5093851;28;20040;-79
2022/10/22 10:19:14;;;;;;;12.35;4.32;;;15.80;99.90;;;;;;5093380;28;20054;-79
2022/10/22 10:22:17;;;;;;;19.00;4.20;;;15.80;99.90;;;;;;5093565;28;20052;-80
2022/10/22 10:25:08;;;;;;;19.42;5.20;;;15.80;99.90;;;;;;5075241;28;20083;-78
2022/10/22 10:27:39;;;;;;;15.73;4.00;;;15.80;99.90;;;;;;5070672;28;20099;-78
2022/10/22 10:30:17;;;;;;;16.52;4.70;;;16.00;99.90;;;;;;5070138;28;20465;-78
2022/10/22 10:33:18;;;;;;;18.13;4.72;;;15.90;99.90;;;;;;5070290;28;20523;-80
2022/10/22 10:36:07;;;;;;;14.65;4.95;;;15.80;99.90;;;;;;5030890;28;20878;-79
2022/10/22 10:38:49;;;;;;;11.88;4.82;;;15.90;99.90;;;;;;5030488;28;20050;-80
2022/10/22 10:41:59;;;;;;;15.57;4.78;;;15.90;99.90;;;;;;5030607;28;20061;-83
2022/10/22 10:44:45;;;;;;;16.42;4.82;;;15.90;99.90;;;;;;4992768;28;20421;-80
2022/10/22 10:47:25;;;;;;;10.57;4.45;;;15.80;99.90;;;;;;5010262;28;20107;-81
2022/10/22 10:49:54;;;;;;;17.30;4.70;;;15.80;99.90;;;;;;5010513;28;20497;-78
2022/10/22 10:52:43;;;;;;;18.40;5.80;;;15.80;99.90;;;;;;5009744;28;20117;-77
2022/10/22 10:55:15;;;;;;;20.38;5.18;;;16.00;99.90;;;;;;5010627;28;20065;-81
2022/10/22 10:57:52;;;;;;;11.35;4.85;;;16.00;99.90;;;;;;5010897;28;20509;-79
2022/10/22 11:00:19;;;;;;;16.60;5.40;;;15.50;99.90;;;;;;5010668;28;20053;-79
2022/10/22 11:03:18;;;;;;;14.07;4.35;;;15.80;99.90;;;;;;4992163;28;20104;-81
2022/10/22 11:05:57;;;;;;;14.98;4.95;;;15.50;99.90;;;;;;4990291;28;20444;-81
2022/10/22 11:08:33;;;;;;;17.05;5.57;;;15.40;99.90;;;;;;4990283;28;20065;-79
2022/10/22 11:11:17;;;;;;;12.27;5.15;;;15.40;99.90;;;;;;4990927;28;20513;-80
2022/10/22 11:14:00;;;;;;;13.13;5.53;;;15.30;99.90;;;;;;5038265;28;20061;-81
2022/10/22 11:16:39;;;;;;;14.50;5.32;;;15.40;99.90;;;;;;5042705;28;20087;-81
2022/10/22 11:19:17;;;;;;;14.45;5.90;;;15.40;99.90;;;;;;5062058;28;20090;-82
2022/10/22 11:21:48;;;;;;;15.40;5.45;;;15.50;99.90;;;;;;5098619;28;20494;-80
2022/10/22 11:24:40;;;;;;;16.08;6.18;;;15.80;99.90;;;;;;5092531;28;20901;-80
2022/10/22 11:27:24;;;;;;;12.13;5.65;;;16.00;99.90;;;;;;5092662;28;20043;-78
2022/10/22 11:30:00;;;;;;;12.40;5.53;;;16.00;99.90;;;;;;5100193;28;20903;-79
2022/10/22 11:32:27;;;;;;;18.75;6.15;;;16.00;99.90;;;;;;5108455;28;20300;-81
2022/10/22 11:34:58;;;;;;;12.77;5.75;;;16.00;99.90;;;;;;5112724;28;20040;-83
2022/10/22 11:37:31;;;;;;;16.27;5.65;;;16.00;99.90;;;;;;5112724;28;20071;-84
2022/10/22 11:40:01;;;;;;;16.13;5.63;;;16.30;99.90;;;;;;5112590;28;20046;-80
2022/10/22 11:43:02;;;;;;;18.10;6.22;;;15.90;99.90;;;;;;5110692;28;20051;-82
2022/10/22 11:45:37;;;;;;;14.25;6.07;;;15.90;99.90;;;;;;5096341;28;20044;-77
2022/10/22 11:48:08;;;;;;;16.30;5.90;;;15.80;99.90;;;;;;5101242;28;20040;-80
2022/10/22 11:50:40;;;;;;;15.77;6.65;;;15.80;99.90;;;;;;5109158;28;20055;-79
2022/10/22 11:53:26;;;;;;;15.05;6.78;;;15.70;99.90;;;;;;5101362;28;20406;-77
2022/10/22 11:56:23;;;;;;;20.92;7.57;;;15.70;99.90;;;;;;5091772;28;20153;-80
2022/10/22 11:58:49;;;;;;;13.88;7.05;;;15.60;99.90;;;;;;5104515;28;20065;-78
2022/10/22 12:01:38;;;;;;;17.35;6.90;;;15.70;99.90;;;;;;5112014;28;20444;-77
2022/10/22 12:04:04;;;;;;;17.20;6.30;;;15.60;99.90;;;;;;5103452;28;20072;-81
2022/10/22 12:06:53;;;;;;;15.85;6.82;;;15.60;99.90;;;;;;5111848;28;20048;-81
2022/10/22 12:09:21;;;;;;;26.52;6.82;;;15.80;99.90;;;;;;5111483;27;20039;-82
2022/10/22 12:11:49;;;;;;;17.23;7.30;;;15.80;99.90;;;;;;5111073;28;20059;-81
2022/10/22 12:14:21;;;;;;;13.07;5.90;;;15.90;99.90;;;;;;5103505;28;20127;-79
2022/10/22 12:16:50;;;;;;;11.52;6.00;;;16.20;99.90;;;;;;5091191;28;20090;-79
2022/10/22 12:19:25;;;;;;;18.10;5.80;;;16.00;99.90;;;;;;5091248;28;20046;-81
2022/10/22 12:21:54;;;;;;;15.23;6.15;;;15.90;99.90;;;;;;5091236;28;20044;-78
2022/10/22 12:24:22;;;;;;;18.15;6.03;;;16.00;99.90;;;;;;5092092;28;20043;-80
2022/10/22 12:26:51;;;;;;;14.40;5.15;;;16.00;99.90;;;;;;5090580;28;20050;-79
2022/10/22 12:29:21;;;;;;;15.10;5.65;;;16.00;99.90;;;;;;5090849;28;20060;-81
2022/10/22 12:31:47;;;;;;;15.88;4.68;;;16.00;99.90;;;;;;5092296;28;20101;-79
2022/10/22 12:34:22;;;;;;;10.57;4.90;;;16.00;99.90;;;;;;5090279;28;20056;-79
2022/10/22 12:36:51;;;;;;;12.98;4.50;;;15.90;99.90;;;;;;5090774;28;20050;-79
2022/10/22 12:39:24;;;;;;;15.40;4.75;;;16.00;99.90;;;;;;5090550;28;20043;-80
2022/10/22 12:41:52;;;;;;;22.30;6.97;;;15.80;99.90;;;;;;5091160;28;20780;-79
2022/10/22 12:44:17;;;;;;;15.15;5.38;;;16.10;99.90;;;;;;5090654;28;20051;-80
2022/10/22 12:46:46;;;;;;;15.00;5.45;;;15.90;99.90;;;;;;5090817;28;20043;-80
2022/10/22 12:49:21;;;;;;;14.65;4.97;;;15.90;99.90;;;;;;5090482;28;20802;-79
2022/10/22 12:51:47;;;;;;;16.40;4.70;;;15.90;99.90;;;;;;5090468;28;20055;-78
2022/10/22 12:54:26;;;;;;;14.07;4.07;;;16.10;99.90;;;;;;5091333;28;20090;-80
2022/10/22 12:56:54;;;;;;;14.07;3.78;;;16.00;99.90;;;;;;5090048;28;20123;-80